Kikai Airport

About
Name: Kikai Airport
Identifier:  KKX/RJKI
Operator:  Government
Public/Private:  Public
Local Time:  21. Sep 17:51 JST
Description: Kikai Airport, also known as Kikaijima Airport or Kikaiga Shima Airport, is located in Kikai, a town on Kikaijima, one of the Amami Islands in the Kagoshima Prefecture of Japan.
Source: Wikipedia
Location
Runways
Identifier Length (m/ft) Surface
07/25 1,200/3,937 Asphalt
Statistics
Flights per Day:
7 flights
Distance: 174km (108mi)
Flights delayed:
76% (1 flights per day delayed)
Delay Average: 3 minutes
Current Weather
 25 C (Humidity: 94%)
  22kt (40km/h / 25mph) from 150°
42 knots Gusts

  6km (3 mi.)
 METAR RJKI 210806Z AUTO 15022G42KT 110V180 6000 -RA FEW016 SCT050 BKN060 //////TCU 25/24 Q1003 RMK A2964 TCU ALL QUAD MOV UNKNOWN

Current Flights

Arrivals
Number Arrival From Airline
Cancelled JC3831 10:05  Amami  JAL Express
Cancelled JC3785 14:25  Kagoshima  JAL Express
Cancelled JC3833 14:05  Amami  JAL Express
Cancelled JC3835 16:25  Amami  JAL Express

Current Delays

Departures
N/A
Arrivals
N/A

Destinations

Top Destinations
Airport Flights
per week
Seats
per week
  Amami (ASJ) 41 795 5 113
  Kagoshima (KOJ) 24 378 3 54

Airlines & Planes

Top Airlines
Airline Flights
per Day
Seats
per Day
  Japan Air Commuter 9 167
Top Plane Types
Model Flights Seats
ATR 42-600 9.2/day 156/day 156.8
Saab 340 0.3/day 10/day 10.8